sensor_id;sensor_type;location;lat;lon;timestamp;pressure;altitude;pressure_sealevel;temperature;humidity
56600;BME280;51832;48.152;11.530;2024-01-30T00:03:18;96821.84;;;7.69;60.41
56600;BME280;51832;48.152;11.530;2024-01-30T00:08:18;96821.03;;;7.76;60.79
56600;BME280;51832;48.152;11.530;2024-01-30T00:13:19;96815.22;;;7.89;60.45
56600;BME280;51832;48.152;11.530;2024-01-30T00:18:20;96820.34;;;8.13;59.47
56600;BME280;51832;48.152;11.530;2024-01-30T00:23:20;96823.56;;;8.24;58.98
56600;BME280;51832;48.152;11.530;2024-01-30T00:28:21;96824.94;;;8.11;59.29
56600;BME280;51832;48.152;11.530;2024-01-30T00:33:21;96824.09;;;7.88;59.84
56600;BME280;51832;48.152;11.530;2024-01-30T00:38:22;96821.03;;;7.76;60.00
56600;BME280;51832;48.152;11.530;2024-01-30T00:43:22;96821.56;;;7.64;59.32
56600;BME280;51832;48.152;11.530;2024-01-30T00:48:25;96825.56;;;7.43;60.97
56600;BME280;51832;48.152;11.530;2024-01-30T00:53:26;96821.81;;;7.38;61.82
56600;BME280;51832;48.152;11.530;2024-01-30T00:58:26;96831.34;;;7.23;61.95
56600;BME280;51832;48.152;11.530;2024-01-30T01:03:26;96826.13;;;6.98;63.05
56600;BME280;51832;48.152;11.530;2024-01-30T01:08:27;96824.19;;;6.92;64.65
56600;BME280;51832;48.152;11.530;2024-01-30T01:13:27;96825.97;;;7.08;64.02
56600;BME280;51832;48.152;11.530;2024-01-30T01:18:28;96824.50;;;6.97;63.81
56600;BME280;51832;48.152;11.530;2024-01-30T01:23:28;96829.38;;;6.11;67.93
56600;BME280;51832;48.152;11.530;2024-01-30T01:28:29;96827.19;;;5.90;68.81
56600;BME280;51832;48.152;11.530;2024-01-30T01:33:29;96826.63;;;5.79;70.33
56600;BME280;51832;48.152;11.530;2024-01-30T01:38:30;96813.97;;;5.92;69.04
56600;BME280;51832;48.152;11.530;2024-01-30T01:43:30;96820.16;;;5.91;69.38
56600;BME280;51832;48.152;11.530;2024-01-30T01:48:31;96821.22;;;5.72;69.60
56600;BME280;51832;48.152;11.530;2024-01-30T01:53:31;96823.63;;;5.65;69.89
56600;BME280;51832;48.152;11.530;2024-01-30T01:58:32;96815.28;;;5.62;70.53
56600;BME280;51832;48.152;11.530;2024-01-30T02:03:34;96816.06;;;5.46;70.52
56600;BME280;51832;48.152;11.530;2024-01-30T02:08:37;96815.13;;;5.63;70.42
56600;BME280;51832;48.152;11.530;2024-01-30T02:13:37;96818.63;;;5.80;69.79
56600;BME280;51832;48.152;11.530;2024-01-30T02:18:38;96824.31;;;5.76;69.45
56600;BME280;51832;48.152;11.530;2024-01-30T02:23:44;96815.66;;;5.67;70.33
56600;BME280;51832;48.152;11.530;2024-01-30T02:28:46;96819.22;;;5.66;70.29
56600;BME280;51832;48.152;11.530;2024-01-30T02:33:47;96823.31;;;5.68;71.10
56600;BME280;51832;48.152;11.530;2024-01-30T02:38:47;96822.81;;;5.65;70.83
56600;BME280;51832;48.152;11.530;2024-01-30T02:43:48;96815.25;;;5.46;71.99
56600;BME280;51832;48.152;11.530;2024-01-30T02:48:48;96817.03;;;5.45;71.72
56600;BME280;51832;48.152;11.530;2024-01-30T02:53:48;96806.94;;;5.50;70.90
56600;BME280;51832;48.152;11.530;2024-01-30T02:58:49;96801.00;;;5.32;70.30
56600;BME280;51832;48.152;11.530;2024-01-30T03:03:50;96801.84;;;5.49;70.32
56600;BME280;51832;48.152;11.530;2024-01-30T03:08:50;96795.50;;;5.51;70.46
56600;BME280;51832;48.152;11.530;2024-01-30T03:13:51;96801.94;;;5.65;70.10
56600;BME280;51832;48.152;11.530;2024-01-30T03:18:51;96791.31;;;5.24;69.43
56600;BME280;51832;48.152;11.530;2024-01-30T03:23:52;96797.50;;;5.23;69.01
56600;BME280;51832;48.152;11.530;2024-01-30T03:28:53;96788.25;;;5.29;69.53
56600;BME280;51832;48.152;11.530;2024-01-30T03:33:54;96788.75;;;5.32;70.41
56600;BME280;51832;48.152;11.530;2024-01-30T03:38:54;96797.78;;;5.12;70.02
56600;BME280;51832;48.152;11.530;2024-01-30T03:43:54;96788.53;;;5.18;69.28
56600;BME280;51832;48.152;11.530;2024-01-30T03:48:55;96789.00;;;5.21;67.65
56600;BME280;51832;48.152;11.530;2024-01-30T03:53:55;96782.13;;;5.12;67.55
56600;BME280;51832;48.152;11.530;2024-01-30T03:58:56;96780.63;;;5.10;66.77
56600;BME280;51832;48.152;11.530;2024-01-30T04:03:57;96789.66;;;5.23;65.99
56600;BME280;51832;48.152;11.530;2024-01-30T04:08:57;96791.84;;;5.36;65.56
56600;BME280;51832;48.152;11.530;2024-01-30T04:13:58;96788.78;;;5.41;65.89
56600;BME280;51832;48.152;11.530;2024-01-30T04:18:58;96780.44;;;5.37;65.44
56600;BME280;51832;48.152;11.530;2024-01-30T04:23:59;96788.94;;;5.39;65.47
56600;BME280;51832;48.152;11.530;2024-01-30T04:28:59;96785.72;;;5.45;65.33
56600;BME280;51832;48.152;11.530;2024-01-30T04:34:00;96783.19;;;5.35;65.12
56600;BME280;51832;48.152;11.530;2024-01-30T04:39:00;96785.66;;;5.37;64.65
56600;BME280;51832;48.152;11.530;2024-01-30T04:44:00;96786.09;;;5.24;65.23
56600;BME280;51832;48.152;11.530;2024-01-30T04:49:01;96782.91;;;5.39;65.08
56600;BME280;51832;48.152;11.530;2024-01-30T04:54:01;96782.53;;;5.33;65.91
56600;BME280;51832;48.152;11.530;2024-01-30T04:59:02;96787.28;;;5.30;63.76
56600;BME280;51832;48.152;11.530;2024-01-30T05:04:03;96781.00;;;5.15;63.83
56600;BME280;51832;48.152;11.530;2024-01-30T05:09:03;96794.63;;;5.34;63.67
56600;BME280;51832;48.152;11.530;2024-01-30T05:14:08;96793.06;;;5.50;63.63
56600;BME280;51832;48.152;11.530;2024-01-30T05:19:15;96798.75;;;5.45;63.32
56600;BME280;51832;48.152;11.530;2024-01-30T05:24:17;96797.88;;;5.28;64.31
56600;BME280;51832;48.152;11.530;2024-01-30T05:29:18;96797.81;;;8.27;100.00
56600;BME280;51832;48.152;11.530;2024-01-30T05:34:19;96792.13;;;10.02;82.24
56600;BME280;51832;48.152;11.530;2024-01-30T05:39:19;96794.47;;;9.31;71.42
56600;BME280;51832;48.152;11.530;2024-01-30T05:44:20;96792.66;;;7.80;55.29
56600;BME280;51832;48.152;11.530;2024-01-30T05:49:20;96803.25;;;6.92;59.66
56600;BME280;51832;48.152;11.530;2024-01-30T05:54:21;96815.16;;;6.14;63.56
56600;BME280;51832;48.152;11.530;2024-01-30T05:59:21;96812.56;;;5.71;64.88
56600;BME280;51832;48.152;11.530;2024-01-30T06:04:21;96813.84;;;5.67;65.10
56600;BME280;51832;48.152;11.530;2024-01-30T06:09:22;96822.81;;;5.65;66.11
56600;BME280;51832;48.152;11.530;2024-01-30T06:14:22;96813.78;;;5.51;66.78
56600;BME280;51832;48.152;11.530;2024-01-30T06:19:23;96812.78;;;5.44;67.79
56600;BME280;51832;48.152;11.530;2024-01-30T06:24:23;96808.47;;;5.35;68.17
56600;BME280;51832;48.152;11.530;2024-01-30T06:29:24;96819.03;;;5.25;66.67
56600;BME280;51832;48.152;11.530;2024-01-30T06:34:26;96816.41;;;5.17;66.19
56600;BME280;51832;48.152;11.530;2024-01-30T06:39:27;96822.03;;;5.30;66.48
56600;BME280;51832;48.152;11.530;2024-01-30T06:44:27;96830.53;;;5.32;66.56
56600;BME280;51832;48.152;11.530;2024-01-30T06:49:28;96826.22;;;5.23;67.76
56600;BME280;51832;48.152;11.530;2024-01-30T06:54:28;96834.00;;;5.49;67.40
56600;BME280;51832;48.152;11.530;2024-01-30T06:59:29;96833.66;;;5.44;66.51
56600;BME280;51832;48.152;11.530;2024-01-30T07:04:29;96837.78;;;5.55;65.65
56600;BME280;51832;48.152;11.530;2024-01-30T07:09:31;96846.84;;;5.77;75.96
56600;BME280;51832;48.152;11.530;2024-01-30T07:14:32;96829.84;;;6.06;68.06
56600;BME280;51832;48.152;11.530;2024-01-30T07:19:32;96833.75;;;6.02;64.14
56600;BME280;51832;48.152;11.530;2024-01-30T07:24:33;96837.06;;;6.13;63.33
56600;BME280;51832;48.152;11.530;2024-01-30T07:29:33;96839.00;;;6.19;62.88
56600;BME280;51832;48.152;11.530;2024-01-30T07:34:34;96847.25;;;6.64;73.03
56600;BME280;51832;48.152;11.530;2024-01-30T07:39:34;96846.41;;;6.72;65.25
56600;BME280;51832;48.152;11.530;2024-01-30T07:44:35;96843.63;;;7.06;68.77
56600;BME280;51832;48.152;11.530;2024-01-30T07:49:35;96851.97;;;7.18;62.42
56600;BME280;51832;48.152;11.530;2024-01-30T07:54:39;96855.03;;;7.29;60.04
56600;BME280;51832;48.152;11.530;2024-01-30T07:59:42;96859.47;;;7.37;58.84
56600;BME280;51832;48.152;11.530;2024-01-30T08:04:43;96855.91;;;7.69;58.17
56600;BME280;51832;48.152;11.530;2024-01-30T08:09:43;96853.94;;;7.71;56.90
56600;BME280;51832;48.152;11.530;2024-01-30T08:14:44;96864.06;;;7.82;54.43
56600;BME280;51832;48.152;11.530;2024-01-30T08:19:44;96867.44;;;7.99;54.06
56600;BME280;51832;48.152;11.530;2024-01-30T08:24:45;96865.22;;;8.18;53.02
56600;BME280;51832;48.152;11.530;2024-01-30T08:29:45;96866.53;;;8.14;51.88
56600;BME280;51832;48.152;11.530;2024-01-30T08:34:46;96864.81;;;8.38;50.46
56600;BME280;51832;48.152;11.530;2024-01-30T08:39:46;96858.53;;;8.70;49.92
56600;BME280;51832;48.152;11.530;2024-01-30T08:44:47;96854.84;;;9.16;55.58
56600;BME280;51832;48.152;11.530;2024-01-30T08:49:47;96854.34;;;9.50;49.34
56600;BME280;51832;48.152;11.530;2024-01-30T08:54:47;96857.16;;;9.78;48.21
56600;BME280;51832;48.152;11.530;2024-01-30T08:59:48;96861.66;;;9.99;47.48
56600;BME280;51832;48.152;11.530;2024-01-30T09:04:48;96869.19;;;10.17;47.17
56600;BME280;51832;48.152;11.530;2024-01-30T09:09:49;96875.41;;;10.45;45.95
56600;BME280;51832;48.152;11.530;2024-01-30T09:14:49;96875.00;;;10.63;45.13
56600;BME280;51832;48.152;11.530;2024-01-30T09:19:50;96879.44;;;10.84;44.52
56600;BME280;51832;48.152;11.530;2024-01-30T09:24:50;96883.84;;;10.98;43.65
56600;BME280;51832;48.152;11.530;2024-01-30T09:29:51;96893.88;;;10.88;43.67
56600;BME280;51832;48.152;11.530;2024-01-30T09:34:51;96885.72;;;11.04;43.74
56600;BME280;51832;48.152;11.530;2024-01-30T09:39:52;96887.94;;;11.28;42.86
56600;BME280;51832;48.152;11.530;2024-01-30T09:44:53;96889.72;;;11.49;42.57
56600;BME280;51832;48.152;11.530;2024-01-30T09:49:55;96890.25;;;11.66;42.63
56600;BME280;51832;48.152;11.530;2024-01-30T09:54:59;96885.84;;;11.73;42.58
56600;BME280;51832;48.152;11.530;2024-01-30T10:00:00;96885.75;;;11.88;41.55
56600;BME280;51832;48.152;11.530;2024-01-30T10:05:00;96888.47;;;12.07;41.28
56600;BME280;51832;48.152;11.530;2024-01-30T10:10:01;96888.09;;;12.10;40.90
56600;BME280;51832;48.152;11.530;2024-01-30T10:15:01;96885.31;;;12.25;40.92
56600;BME280;51832;48.152;11.530;2024-01-30T10:20:05;96890.81;;;12.30;40.99
56600;BME280;51832;48.152;11.530;2024-01-30T10:25:06;96879.31;;;12.51;40.41
56600;BME280;51832;48.152;11.530;2024-01-30T10:30:07;96875.09;;;12.57;39.27
56600;BME280;51832;48.152;11.530;2024-01-30T10:35:08;96869.00;;;12.63;39.19
56600;BME280;51832;48.152;11.530;2024-01-30T10:40:13;96859.28;;;12.83;38.35
56600;BME280;51832;48.152;11.530;2024-01-30T10:45:14;96859.28;;;12.76;37.63
56600;BME280;51832;48.152;11.530;2024-01-30T10:50:19;96848.13;;;12.94;36.55
56600;BME280;51832;48.152;11.530;2024-01-30T10:55:21;96836.75;;;13.27;36.75
56600;BME280;51832;48.152;11.530;2024-01-30T11:00:22;96838.59;;;13.20;36.27
56600;BME280;51832;48.152;11.530;2024-01-30T11:05:25;96831.06;;;13.43;36.00
56600;BME280;51832;48.152;11.530;2024-01-30T11:10:28;96829.00;;;13.65;36.20
56600;BME280;51832;48.152;11.530;2024-01-30T11:15:29;96827.81;;;14.12;35.55
56600;BME280;51832;48.152;11.530;2024-01-30T11:20:32;96819.75;;;13.87;35.55
56600;BME280;51832;48.152;11.530;2024-01-30T11:25:32;96810.41;;;13.84;35.63
56600;BME280;51832;48.152;11.530;2024-01-30T11:30:33;96810.84;;;13.75;34.92
56600;BME280;51832;48.152;11.530;2024-01-30T11:35:44;96807.22;;;14.20;34.71
56600;BME280;51832;48.152;11.530;2024-01-30T11:40:45;96803.38;;;14.10;34.74
56600;BME280;51832;48.152;11.530;2024-01-30T11:45:46;96806.72;;;14.37;35.07
56600;BME280;51832;48.152;11.530;2024-01-30T11:50:47;96796.88;;;15.07;34.06
56600;BME280;51832;48.152;11.530;2024-01-30T11:55:50;96800.78;;;14.79;33.40
56600;BME280;51832;48.152;11.530;2024-01-30T12:00:57;96799.13;;;15.10;32.89
56600;BME280;51832;48.152;11.530;2024-01-30T12:05:58;96783.47;;;15.45;32.59
56600;BME280;51832;48.152;11.530;2024-01-30T12:10:59;96774.41;;;15.95;31.57
56600;BME280;51832;48.152;11.530;2024-01-30T12:16:01;96776.09;;;16.38;30.28
56600;BME280;51832;48.152;11.530;2024-01-30T12:21:02;96774.50;;;16.79;28.79
56600;BME280;51832;48.152;11.530;2024-01-30T12:26:03;96758.72;;;17.07;27.72
56600;BME280;51832;48.152;11.530;2024-01-30T12:31:07;96755.88;;;16.67;28.69
56600;BME280;51832;48.152;11.530;2024-01-30T12:36:09;96750.47;;;16.85;28.82
56600;BME280;51832;48.152;11.530;2024-01-30T12:41:10;96753.25;;;17.60;54.63
56600;BME280;51832;48.152;11.530;2024-01-30T12:46:10;96748.28;;;17.17;29.70
56600;BME280;51832;48.152;11.530;2024-01-30T12:51:11;96742.38;;;17.62;28.43
56600;BME280;51832;48.152;11.530;2024-01-30T12:56:11;96741.31;;;17.74;27.29
56600;BME280;51832;48.152;11.530;2024-01-30T13:01:12;96728.56;;;18.17;26.23
56600;BME280;51832;48.152;11.530;2024-01-30T13:06:12;96728.34;;;18.06;26.27
56600;BME280;51832;48.152;11.530;2024-01-30T13:11:13;96736.69;;;18.10;25.72
56600;BME280;51832;48.152;11.530;2024-01-30T13:16:13;96734.91;;;18.89;25.93
56600;BME280;51832;48.152;11.530;2024-01-30T13:21:14;96734.47;;;19.69;24.62
56600;BME280;51832;48.152;11.530;2024-01-30T13:26:14;96737.22;;;19.52;24.00
56600;BME280;51832;48.152;11.530;2024-01-30T13:31:15;96733.88;;;19.45;23.17
56600;BME280;51832;48.152;11.530;2024-01-30T13:36:16;96737.78;;;19.38;23.40
56600;BME280;51832;48.152;11.530;2024-01-30T13:41:16;96742.81;;;19.73;22.63
56600;BME280;51832;48.152;11.530;2024-01-30T13:46:17;96743.34;;;20.40;22.80
56600;BME280;51832;48.152;11.530;2024-01-30T13:51:18;96742.72;;;20.87;22.05
56600;BME280;51832;48.152;11.530;2024-01-30T13:56:20;96747.44;;;20.75;22.22
56600;BME280;51832;48.152;11.530;2024-01-30T14:01:21;96742.03;;;21.02;21.94
56600;BME280;51832;48.152;11.530;2024-01-30T14:06:21;96739.69;;;21.10;22.65
56600;BME280;51832;48.152;11.530;2024-01-30T14:11:21;96751.44;;;20.45;24.93
56600;BME280;51832;48.152;11.530;2024-01-30T14:16:22;96747.06;;;19.91;24.57
56600;BME280;51832;48.152;11.530;2024-01-30T14:21:24;96753.63;;;19.28;25.60
56600;BME280;51832;48.152;11.530;2024-01-30T14:26:25;96752.81;;;19.44;25.40
56600;BME280;51832;48.152;11.530;2024-01-30T14:31:25;96753.72;;;19.16;26.25
56600;BME280;51832;48.152;11.530;2024-01-30T14:36:26;96767.47;;;18.74;26.31
56600;BME280;51832;48.152;11.530;2024-01-30T14:41:28;96769.63;;;18.61;26.87
56600;BME280;51832;48.152;11.530;2024-01-30T14:46:28;96772.09;;;18.96;27.72
56600;BME280;51832;48.152;11.530;2024-01-30T14:51:29;96770.31;;;19.01;27.48
56600;BME280;51832;48.152;11.530;2024-01-30T14:56:30;96773.41;;;19.10;27.30
56600;BME280;51832;48.152;11.530;2024-01-30T15:01:30;96769.72;;;19.66;26.85
56600;BME280;51832;48.152;11.530;2024-01-30T15:06:31;96782.66;;;19.41;27.55
56600;BME280;51832;48.152;11.530;2024-01-30T15:11:31;96785.78;;;18.99;28.60
56600;BME280;51832;48.152;11.530;2024-01-30T15:16:33;96771.28;;;18.22;29.91
56600;BME280;51832;48.152;11.530;2024-01-30T15:21:34;96790.72;;;17.82;31.04
56600;BME280;51832;48.152;11.530;2024-01-30T15:26:34;96788.19;;;17.64;31.63
56600;BME280;51832;48.152;11.530;2024-01-30T15:31:35;96790.25;;;17.38;31.61
56600;BME280;51832;48.152;11.530;2024-01-30T15:36:35;96801.25;;;17.54;31.97
56600;BME280;51832;48.152;11.530;2024-01-30T15:41:36;96802.81;;;18.13;31.43
56600;BME280;51832;48.152;11.530;2024-01-30T15:46:37;96799.72;;;18.90;30.27
56600;BME280;51832;48.152;11.530;2024-01-30T15:51:37;96803.88;;;18.12;31.07
56600;BME280;51832;48.152;11.530;2024-01-30T15:56:37;96800.81;;;17.33;32.49
56600;BME280;51832;48.152;11.530;2024-01-30T16:01:38;96809.72;;;16.74;33.82
56600;BME280;51832;48.152;11.530;2024-01-30T16:06:40;96818.63;;;16.20;35.20
56600;BME280;51832;48.152;11.530;2024-01-30T16:11:40;96826.66;;;15.77;36.10
56600;BME280;51832;48.152;11.530;2024-01-30T16:16:41;96831.72;;;15.35;36.59
56600;BME280;51832;48.152;11.530;2024-01-30T16:21:41;96835.25;;;15.29;36.54
56600;BME280;51832;48.152;11.530;2024-01-30T16:26:44;96837.84;;;14.86;37.53
56600;BME280;51832;48.152;11.530;2024-01-30T16:31:45;96833.88;;;14.70;37.66
56600;BME280;51832;48.152;11.530;2024-01-30T16:36:45;96849.84;;;14.57;38.28
56600;BME280;51832;48.152;11.530;2024-01-30T16:41:46;96857.84;;;14.37;38.44
56600;BME280;51832;48.152;11.530;2024-01-30T16:46:46;96856.81;;;14.45;38.29
56600;BME280;51832;48.152;11.530;2024-01-30T16:51:47;96862.16;;;14.25;38.56
56600;BME280;51832;48.152;11.530;2024-01-30T16:56:47;96856.91;;;14.18;37.73
56600;BME280;51832;48.152;11.530;2024-01-30T17:01:48;96866.28;;;14.14;38.26
56600;BME280;51832;48.152;11.530;2024-01-30T17:06:49;96871.22;;;14.04;38.77
56600;BME280;51832;48.152;11.530;2024-01-30T17:11:50;96870.25;;;13.85;39.38
56600;BME280;51832;48.152;11.530;2024-01-30T17:16:51;96875.13;;;13.88;38.55
56600;BME280;51832;48.152;11.530;2024-01-30T17:21:52;96872.56;;;13.49;39.30
56600;BME280;51832;48.152;11.530;2024-01-30T17:26:53;96880.28;;;13.44;39.16
56600;BME280;51832;48.152;11.530;2024-01-30T17:31:53;96880.06;;;13.19;39.51
56600;BME280;51832;48.152;11.530;2024-01-30T17:36:54;96878.03;;;13.28;39.39
56600;BME280;51832;48.152;11.530;2024-01-30T17:41:54;96880.25;;;13.11;40.04
56600;BME280;51832;48.152;11.530;2024-01-30T17:46:55;96892.41;;;12.92;40.08
56600;BME280;51832;48.152;11.530;2024-01-30T17:51:55;96888.75;;;12.80;40.37
56600;BME280;51832;48.152;11.530;2024-01-30T17:56:56;96891.56;;;12.72;40.78
56600;BME280;51832;48.152;11.530;2024-01-30T18:01:56;96891.16;;;12.75;41.01
56600;BME280;51832;48.152;11.530;2024-01-30T18:06:57;96892.38;;;12.66;41.47
56600;BME280;51832;48.152;11.530;2024-01-30T18:11:59;96901.22;;;12.45;41.78
56600;BME280;51832;48.152;11.530;2024-01-30T18:17:00;96906.50;;;12.38;42.22
56600;BME280;51832;48.152;11.530;2024-01-30T18:22:00;96908.69;;;12.28;42.85
56600;BME280;51832;48.152;11.530;2024-01-30T18:27:00;96914.59;;;12.37;43.66
56600;BME280;51832;48.152;11.530;2024-01-30T18:32:01;96903.78;;;12.25;51.98
56600;BME280;51832;48.152;11.530;2024-01-30T18:37:02;96901.16;;;11.91;46.05
56600;BME280;51832;48.152;11.530;2024-01-30T18:42:03;96906.03;;;11.87;46.21
56600;BME280;51832;48.152;11.530;2024-01-30T18:47:03;96907.88;;;11.93;45.92
56600;BME280;51832;48.152;11.530;2024-01-30T18:52:04;96919.03;;;11.61;47.01
56600;BME280;51832;48.152;11.530;2024-01-30T18:57:05;96914.50;;;11.55;47.45
56600;BME280;51832;48.152;11.530;2024-01-30T19:02:06;96918.84;;;11.41;48.46
56600;BME280;51832;48.152;11.530;2024-01-30T19:07:06;96918.69;;;11.21;48.92
56600;BME280;51832;48.152;11.530;2024-01-30T19:12:07;96912.28;;;11.30;49.42
56600;BME280;51832;48.152;11.530;2024-01-30T19:17:07;96917.31;;;11.25;48.92
56600;BME280;51832;48.152;11.530;2024-01-30T19:22:08;96921.34;;;11.00;50.59
56600;BME280;51832;48.152;11.530;2024-01-30T19:27:09;96918.31;;;10.82;50.85
56600;BME280;51832;48.152;11.530;2024-01-30T19:32:09;96922.53;;;10.76;51.46
56600;BME280;51832;48.152;11.530;2024-01-30T19:37:09;96929.91;;;10.87;51.95
56600;BME280;51832;48.152;11.530;2024-01-30T19:42:10;96924.63;;;10.66;52.52
56600;BME280;51832;48.152;11.530;2024-01-30T19:47:10;96934.31;;;10.00;54.82
56600;BME280;51832;48.152;11.530;2024-01-30T19:52:11;96938.69;;;10.22;54.49
56600;BME280;51832;48.152;11.530;2024-01-30T19:57:12;96937.25;;;10.20;54.42
56600;BME280;51832;48.152;11.530;2024-01-30T20:02:13;96942.56;;;10.26;53.97
56600;BME280;51832;48.152;11.530;2024-01-30T20:07:19;96945.56;;;10.38;53.55
56600;BME280;51832;48.152;11.530;2024-01-30T20:12:19;96952.63;;;10.08;54.75
56600;BME280;51832;48.152;11.530;2024-01-30T20:17:22;96944.94;;;10.21;54.52
56600;BME280;51832;48.152;11.530;2024-01-30T20:22:22;96951.38;;;10.19;54.17
56600;BME280;51832;48.152;11.530;2024-01-30T20:27:23;96954.00;;;10.04;54.04
56600;BME280;51832;48.152;11.530;2024-01-30T20:32:24;96953.16;;;9.89;54.58
56600;BME280;51832;48.152;11.530;2024-01-30T20:37:24;96963.31;;;9.77;54.64
56600;BME280;51832;48.152;11.530;2024-01-30T20:42:25;96961.22;;;9.87;54.24
56600;BME280;51832;48.152;11.530;2024-01-30T20:47:25;96967.13;;;9.89;53.68
56600;BME280;51832;48.152;11.530;2024-01-30T20:52:26;96966.84;;;9.84;53.88
56600;BME280;51832;48.152;11.530;2024-01-30T20:57:26;96963.41;;;9.84;54.04
56600;BME280;51832;48.152;11.530;2024-01-30T21:02:27;96964.97;;;9.93;54.25
56600;BME280;51832;48.152;11.530;2024-01-30T21:07:27;96977.06;;;9.65;54.58
56600;BME280;51832;48.152;11.530;2024-01-30T21:12:28;96977.28;;;9.78;53.98
56600;BME280;51832;48.152;11.530;2024-01-30T21:17:28;96975.09;;;9.81;53.64
56600;BME280;51832;48.152;11.530;2024-01-30T21:22:29;96978.16;;;9.55;54.75
56600;BME280;51832;48.152;11.530;2024-01-30T21:27:29;96971.09;;;9.33;55.22
56600;BME280;51832;48.152;11.530;2024-01-30T21:32:30;96978.34;;;9.69;54.01
56600;BME280;51832;48.152;11.530;2024-01-30T21:37:32;96969.72;;;9.75;53.14
56600;BME280;51832;48.152;11.530;2024-01-30T21:42:36;96967.75;;;9.77;52.89
56600;BME280;51832;48.152;11.530;2024-01-30T21:47:36;96967.31;;;9.88;52.17
56600;BME280;51832;48.152;11.530;2024-01-30T21:52:37;96965.91;;;9.62;52.70
56600;BME280;51832;48.152;11.530;2024-01-30T21:57:37;96962.94;;;9.66;52.90
56600;BME280;51832;48.152;11.530;2024-01-30T22:02:38;96954.97;;;9.74;52.52
56600;BME280;51832;48.152;11.530;2024-01-30T22:07:38;96974.34;;;9.73;52.30
56600;BME280;51832;48.152;11.530;2024-01-30T22:12:39;96973.78;;;9.62;52.75
56600;BME280;51832;48.152;11.530;2024-01-30T22:17:39;96977.34;;;9.70;52.32
56600;BME280;51832;48.152;11.530;2024-01-30T22:22:40;96979.53;;;9.66;52.55
56600;BME280;51832;48.152;11.530;2024-01-30T22:27:40;96983.09;;;9.50;52.69
56600;BME280;51832;48.152;11.530;2024-01-30T22:32:41;96981.03;;;9.60;52.63
56600;BME280;51832;48.152;11.530;2024-01-30T22:37:41;96986.75;;;9.64;53.24
56600;BME280;51832;48.152;11.530;2024-01-30T22:42:42;96987.88;;;9.47;53.50
56600;BME280;51832;48.152;11.530;2024-01-30T22:47:42;96982.25;;;9.35;54.23
56600;BME280;51832;48.152;11.530;2024-01-30T22:52:44;96979.63;;;9.35;54.17
56600;BME280;51832;48.152;11.530;2024-01-30T22:57:46;96986.19;;;9.31;55.22
56600;BME280;51832;48.152;11.530;2024-01-30T23:02:46;96983.28;;;9.49;54.59
56600;BME280;51832;48.152;11.530;2024-01-30T23:07:47;96987.41;;;9.43;54.60
56600;BME280;51832;48.152;11.530;2024-01-30T23:12:48;96997.38;;;9.10;56.07
56600;BME280;51832;48.152;11.530;2024-01-30T23:17:48;96976.06;;;9.28;55.62
56600;BME280;51832;48.152;11.530;2024-01-30T23:22:49;96975.72;;;9.08;55.76
56600;BME280;51832;48.152;11.530;2024-01-30T23:27:49;96976.84;;;9.14;56.20
56600;BME280;51832;48.152;11.530;2024-01-30T23:32:50;96984.41;;;9.32;55.84
56600;BME280;51832;48.152;11.530;2024-01-30T23:37:53;96987.84;;;9.55;55.05
56600;BME280;51832;48.152;11.530;2024-01-30T23:42:54;96988.25;;;9.21;55.44
56600;BME280;51832;48.152;11.530;2024-01-30T23:47:54;96979.63;;;9.35;55.50
56600;BME280;51832;48.152;11.530;2024-01-30T23:52:55;96987.09;;;9.23;55.57
56600;BME280;51832;48.152;11.530;2024-01-30T23:57:55;96980.38;;;9.21;55.34
